Date,TemperatureHighF,TemperatureAvgF,TemperatureLowF,DewpointHighF,DewpointAvgF,DewpointLowF,HumidityHigh,HumidityAvg,HumidityLow,PressureMaxIn,PressureMinIn,WindSpeedMaxMPH,WindSpeedAvgMPH,GustSpeedMaxMPH,PrecipitationSumIn
2013-1-1,18.2,11.1,7.3,13.1,7.0,-2.5,91,84,50,30.40,30.24,5,0,6,0.00
2013-1-2,23.0,13.3,6.1,6.0,1.5,-5.0,81,60,41,30.54,30.36,14,4,14,0.00
2013-1-3,27.1,17.1,8.6,0.9,-3.8,-11.1,65,41,23,30.57,30.45,15,3,15,0.00
2013-1-4,32.1,25.8,22.3,8.2,4.4,-1.6,50,40,32,30.15,30.10,16,4,16,0.00
2013-1-5,32.0,22.9,15.5,13.9,8.9,2.5,75,55,42,30.44,30.10,18,6,18,0.00
2013-1-6,41.7,32.8,17.7,9.9,0.8,-10.5,70,26,13,30.43,29.99,16,1,16,0.00
2013-1-7,45.1,35.9,24.0,11.2,3.9,-2.6,51,27,15,29.99,29.78,18,2,18,0.00
2013-1-8,49.5,35.7,25.1,14.9,7.1,-7.4,64,32,16,30.21,29.76,16,3,16,0.00
2013-1-9,33.2,26.7,23.4,15.4,13.4,8.8,70,58,36,30.21,30.12,9,1,9,0.00
2013-1-10,44.9,33.2,23.0,14.3,10.6,-3.2,63,40,13,30.12,29.48,18,2,18,0.00
2013-1-11,35.2,23.1,8.7,20.3,4.6,-10.6,75,46,21,29.82,29.23,24,4,24,0.00
2013-1-12,15.6,4.5,-4.4,-0.9,-7.7,-15.3,85,59,29,30.24,29.82,14,1,14,0.00
2013-1-13,13.1,2.4,-5.4,5.4,-2.9,-9.5,87,79,46,30.44,30.24,13,1,13,0.00
2013-1-14,9.0,1.4,-3.9,5.7,-1.9,-7.4,89,85,82,30.44,30.35,9,1,9,0.00
2013-1-15,25.5,13.6,-2.2,15.3,2.1,-13.8,86,61,36,30.51,30.40,16,5,16,0.00
2013-1-16,41.9,30.2,22.1,19.6,15.7,11.8,73,56,37,30.43,30.31,15,3,15,0.00
2013-1-17,41.2,29.2,20.4,18.7,15.3,12.4,77,57,38,30.52,30.32,12,2,12,0.00
2013-1-18,50.7,36.9,27.7,12.6,-0.4,-7.1,49,22,9,30.32,30.05,12,1,12,0.00
2013-1-19,50.0,37.3,28.9,5.3,1.9,-2.8,34,23,11,30.23,30.05,14,2,15,0.00
2013-1-20,43.1,32.4,17.5,13.2,2.9,-14.4,83,32,10,30.21,30.07,20,5,20,0.00
2013-1-21,48.1,31.8,14.8,13.7,7.6,-7.3,91,41,15,30.24,30.13,12,1,12,0.00
2013-1-22,57.3,42.8,32.0,-5.0,-13.1,-23.7,18,9,3,30.13,30.02,18,3,18,0.00
2013-1-23,62.9,46.8,33.6,-3.4,-19.0,-35.9,19,6,2,30.11,30.00,10,1,10,0.00
2013-1-24,48.2,41.1,34.5,20.8,3.7,-10.0,47,24,9,30.01,29.87,11,1,11,0.00
2013-1-25,41.7,35.5,28.7,25.7,21.3,15.4,74,56,46,30.07,29.95,16,2,16,0.00
2013-1-26,49.2,39.5,32.3,29.8,24.0,19.1,79,55,32,30.03,29.61,13,2,13,0.00
2013-1-27,53.3,40.7,29.5,29.0,22.7,10.8,92,53,20,29.68,29.58,15,2,15,0.00
2013-1-28,50.6,35.3,22.1,25.8,20.4,11.5,95,59,22,29.63,29.36,24,5,24,0.00
2013-1-29,22.0,15.7,9.3,20.5,11.6,3.3,94,84,55,30.08,29.55,24,8,24,0.00
2013-1-30,29.0,15.4,2.7,16.0,8.4,-0.8,89,75,52,30.13,30.08,15,4,15,0.00
2013-1-31,27.2,23.7,19.5,17.8,15.6,11.8,82,71,62,30.21,30.12,10,1,10,0.00
2013-2-1,39.2,26.8,20.0,16.2,12.0,9.4,72,54,34,30.26,30.12,20,2,20,0.00
2013-2-2,48.4,30.4,17.4,19.7,13.5,7.3,84,53,21,30.38,30.24,13,2,13,0.00
2013-2-3,52.2,35.4,22.8,18.5,8.9,-6.0,67,38,10,30.33,29.89,10,2,10,0.00
2013-2-4,45.3,35.5,30.2,12.0,9.4,7.7,44,34,22,29.94,29.88,7,1,8,0.00
2013-2-5,45.9,36.2,28.6,16.3,12.0,8.6,53,37,25,30.05,29.85,19,3,19,0.00
2013-2-6,50.6,40.1,31.2,19.8,16.0,13.3,50,38,27,29.85,29.72,14,3,14,0.00
2013-2-7,45.4,25.5,23.1,20.0,17.5,15.9,76,71,36,30.17,29.73,12,2,12,0.01
2013-2-8,42.9,31.4,19.3,21.7,16.5,13.4,79,55,36,30.16,29.74,22,4,22,0.00
2013-2-9,34.9,25.7,17.3,21.9,18.4,13.2,94,75,55,29.74,29.43,23,8,23,0.00
2013-2-10,25.2,17.7,10.7,19.3,13.5,7.4,93,84,59,30.18,29.56,21,6,21,0.00
2013-2-11,16.2,12.6,9.7,13.1,10.0,7.2,92,89,81,30.27,30.15,24,3,24,0.00
2013-2-12,14.8,11.9,8.6,10.8,8.6,5.4,92,87,80,30.27,30.24,4,1,4,0.00
2013-2-13,26.9,26.3,25.7,9.0,8.2,6.6,48,46,44,30.09,30.06,3,0,3,0.00
2013-2-14,32.9,20.6,12.5,19.2,12.3,6.6,91,72,43,30.38,30.04,32,6,32,0.00
2013-2-15,31.2,17.7,7.3,18.3,11.6,4.3,92,78,47,30.50,30.35,23,5,23,0.00
2013-2-16,49.2,34.0,12.1,14.2,10.1,3.1,92,40,21,30.49,30.00,14,3,14,0.00
2013-2-17,34.8,31.8,29.1,4.9,0.2,-5.7,33,26,17,30.00,29.80,10,1,10,0.00
2013-2-18,34.7,24.7,17.0,17.7,6.0,-5.6,92,47,17,30.19,29.80,16,4,16,0.00
2013-2-19,33.3,22.7,12.7,13.8,9.6,1.4,90,59,36,30.19,29.88,16,3,16,0.00
2013-2-20,29.4,22.0,16.0,24.7,16.4,10.3,93,79,57,29.88,29.63,19,4,19,0.00
2013-2-21,16.3,12.2,8.7,13.7,9.7,6.0,91,89,84,30.09,29.69,27,12,27,0.00
2013-2-22,24.2,16.5,10.1,19.8,13.8,7.8,93,89,78,30.16,30.07,14,2,14,0.02
2013-2-23,39.1,31.4,21.4,21.9,14.8,7.1,91,53,29,29.96,29.70,22,4,22,0.01
2013-2-24,22.0,18.1,14.0,19.8,16.3,12.1,94,93,90,30.17,29.69,36,16,36,0.00
2013-2-25,31.0,18.0,8.6,16.9,10.9,3.8,92,76,32,30.24,30.06,21,8,22,0.00
2013-2-26,25.8,20.3,14.9,17.3,11.7,3.7,92,71,43,30.21,29.89,35,10,35,0.00
2013-2-27,27.1,17.3,8.4,14.0,8.5,0.4,92,70,38,30.43,30.20,31,6,31,0.00
2013-2-28,33.2,22.8,11.5,11.6,3.4,-3.5,56,43,26,30.45,30.33,16,5,16,0.00
2013-3-1,27.5,25.2,23.6,17.9,16.6,9.9,75,69,54,30.46,30.37,10,2,10,0.00
2013-3-2,50.7,39.3,23.9,27.0,19.2,14.8,70,45,30,30.46,30.03,10,1,10,0.00
2013-3-3,54.5,42.9,33.2,21.9,17.4,10.6,52,37,20,30.03,29.54,20,2,21,0.00
2013-3-4,39.4,25.7,8.6,25.2,18.6,5.6,94,76,45,30.30,29.53,24,8,24,0.00
2013-3-5,22.0,13.7,7.3,18.6,11.1,4.5,95,89,84,30.47,30.30,7,1,7,0.00
2013-3-6,54.5,39.4,21.0,20.1,8.0,1.3,95,29,17,30.32,29.94,12,1,12,0.00
2013-3-7,41.7,38.4,35.0,23.0,16.4,7.2,61,43,25,29.82,29.79,12,2,12,0.00
2013-3-8,45.0,36.5,28.3,28.2,22.6,9.7,96,60,26,29.79,29.51,13,3,13,0.00
2013-3-9,28.5,23.9,16.7,27.7,22.5,12.6,97,94,83,30.11,29.46,45,20,45,0.00
2013-3-10,30.1,22.1,14.8,17.1,13.6,10.7,92,71,52,30.26,30.11,31,13,31,0.00
2013-3-11,43.8,33.6,25.1,25.5,17.8,9.8,96,54,34,30.22,29.92,17,4,17,0.00
2013-3-12,25.8,23.1,22.1,24.8,21.9,20.9,96,95,95,30.41,30.02,7,2,9,0.00
2013-3-13,54.2,40.4,23.3,29.0,24.0,18.8,97,56,31,30.41,30.22,11,2,12,0.00
2013-3-14,59.9,48.1,37.5,23.3,19.2,15.6,50,33,20,30.22,30.02,16,3,16,0.00
2013-3-15,65.5,50.5,41.4,25.0,19.3,12.2,49,30,15,30.02,29.70,16,2,16,0.00
2013-3-16,47.8,37.9,29.9,30.9,25.0,15.9,94,62,30,29.80,29.67,21,4,21,0.00
2013-3-17,54.2,36.5,25.2,30.2,22.5,8.6,94,63,20,29.79,29.49,22,2,22,0.01
2013-3-18,44.2,29.7,16.8,17.4,9.3,3.2,77,46,19,29.99,29.74,32,3,32,0.00
2013-3-19,32.0,29.2,25.6,14.6,10.3,5.4,56,45,38,30.05,29.95,19,5,19,0.00
2013-3-20,39.0,37.7,36.2,20.4,19.6,18.4,50,48,45,29.91,29.83,11,2,11,0.00
2013-3-21,53.7,39.9,32.5,27.0,20.6,14.4,59,47,23,29.83,29.42,28,2,28,0.00
2013-3-22,36.1,23.9,19.1,23.0,20.2,17.3,94,87,51,29.87,29.63,28,15,28,0.00
2013-3-23,19.0,10.9,4.2,17.3,8.5,1.0,93,90,87,30.41,29.84,34,15,34,0.00
2013-3-24,22.1,10.6,2.9,11.7,4.7,-0.1,90,78,48,30.45,30.33,20,6,20,0.00
2013-3-25,29.0,15.2,2.5,13.5,7.3,-0.6,91,72,49,30.52,30.44,15,3,15,0.00
2013-3-26,46.9,30.2,9.7,23.0,14.3,6.4,87,55,28,30.46,30.03,18,3,18,0.00
2013-3-27,49.2,36.4,22.9,27.3,23.0,17.9,87,61,36,30.09,29.98,20,5,20,0.00
2013-3-28,47.9,31.8,27.2,26.7,24.5,21.6,89,76,39,30.09,30.01,13,2,13,0.00
2013-3-29,58.4,48.5,38.7,31.6,24.8,19.7,65,42,24,30.04,29.91,26,4,26,0.00
2013-3-30,60.2,44.8,31.6,33.6,24.7,16.3,95,51,21,30.02,29.85,29,7,29,0.00
2013-3-31,62.4,42.9,28.1,33.2,23.1,5.8,96,55,11,30.02,29.86,18,3,18,0.01
2013-4-1,46.7,34.7,26.5,29.0,24.9,20.0,91,68,47,30.04,29.88,24,5,24,0.00
2013-4-2,32.2,28.4,24.0,31.5,27.0,22.7,98,95,88,30.17,30.01,11,2,11,0.00
2013-4-3,51.4,36.5,26.9,37.5,26.2,14.4,98,73,24,30.19,30.08,22,4,22,0.06
2013-4-4,57.3,41.2,31.4,28.0,23.2,17.5,77,52,23,30.13,30.05,16,5,16,0.00
2013-4-5,64.1,53.7,43.5,28.2,22.1,16.6,54,31,17,30.05,29.53,17,4,18,0.00
2013-4-6,55.1,44.3,30.0,30.9,23.6,15.8,73,46,25,29.79,29.62,18,5,20,0.00
2013-4-7,58.5,44.6,31.5,30.5,22.6,13.7,85,46,18,29.74,29.55,23,3,23,0.00
2013-4-8,59.9,43.6,20.8,31.2,22.6,15.5,96,49,19,29.59,29.22,37,9,37,0.00
2013-4-9,20.7,8.1,2.0,19.2,5.5,-1.0,94,89,85,30.36,29.48,33,19,33,0.00
2013-4-10,20.3,9.9,-2.2,16.5,6.3,-5.3,90,85,76,30.44,30.22,24,8,24,0.00
2013-4-11,47.7,31.1,10.5,34.8,23.0,7.8,95,74,47,30.22,29.89,26,6,26,0.00
2013-4-12,45.6,31.9,25.8,31.7,27.6,24.1,97,85,53,29.95,29.85,16,2,16,0.00
2013-4-13,59.8,40.1,25.5,32.5,22.8,12.9,98,63,16,29.95,29.31,19,2,19,0.00
2013-4-14,48.2,38.1,26.5,31.3,20.0,7.8,96,54,21,29.65,29.31,25,5,25,0.02
2013-4-15,45.5,28.5,20.7,24.0,15.2,5.8,93,62,26,30.01,29.58,26,10,34,0.00
2013-4-16,36.2,24.8,19.5,28.0,22.0,18.0,95,89,67,30.02,29.88,29,8,29,0.00
2013-4-17,26.7,20.8,11.0,25.1,19.2,8.9,96,93,90,30.16,29.88,9,2,9,0.04
2013-4-18,11.2,10.9,10.4,9.1,8.8,8.3,91,91,91,30.17,30.15,0,0,0,0.00
2013-4-19,33.4,31.6,30.6,19.1,18.4,17.3,61,58,54,30.06,30.03,5,0,5,0.02
2013-4-20,50.6,38.4,28.1,31.0,22.7,15.4,95,55,29,30.04,29.85,17,3,17,0.00
2013-4-21,54.2,41.4,30.7,29.9,24.2,18.0,95,54,26,30.01,29.89,18,3,18,0.00
2013-4-22,53.4,30.5,15.0,33.2,22.8,13.0,95,76,29,30.18,29.77,33,10,33,0.00
2013-4-23,25.6,17.1,12.1,21.6,14.5,10.0,94,89,80,30.43,30.15,16,3,16,0.02
2013-4-24,46.4,30.5,15.0,23.2,16.2,12.7,93,60,29,30.42,30.28,15,2,15,0.01
2013-4-25,56.4,42.6,26.6,37.5,21.2,13.0,73,44,24,30.28,29.83,18,4,18,0.01
2013-4-26,57.8,45.7,36.1,27.3,19.9,13.8,66,38,19,30.14,29.89,22,8,22,0.00
2013-4-27,64.7,50.8,36.0,26.1,18.5,10.3,63,32,13,30.13,29.90,21,4,21,0.00
2013-4-28,70.0,56.7,43.2,31.7,17.9,11.3,52,23,11,29.92,29.63,27,3,27,0.00
2013-4-29,73.7,56.3,38.4,31.8,24.7,13.5,68,34,11,29.66,29.43,22,4,22,0.00
2013-4-30,63.3,51.2,32.4,38.1,27.5,13.2,89,45,20,29.68,29.38,24,7,24,0.00
2013-5-1,32.2,25.1,16.9,29.6,23.6,15.2,96,94,90,30.65,29.68,22,11,22,0.03
2013-5-2,36.1,24.6,11.8,22.9,16.9,9.4,93,74,45,30.84,30.56,14,4,14,0.01
2013-5-3,53.7,38.5,22.4,24.6,19.5,14.4,82,50,25,30.57,30.07,20,5,20,0.00
2013-5-4,52.7,39.8,28.1,27.8,23.3,18.7,73,53,33,30.15,29.99,25,4,25,0.00
2013-5-5,48.4,37.5,27.6,21.0,16.8,12.3,63,44,29,30.15,30.05,22,4,22,0.00
2013-5-6,59.7,45.4,30.8,35.1,26.2,17.0,76,48,31,30.12,29.81,18,4,18,0.00
2013-5-7,61.4,47.8,38.3,36.2,31.9,27.4,91,57,28,29.82,29.72,20,5,20,0.00
2013-5-8,39.1,37.3,35.7,36.5,35.3,33.6,95,92,88,29.82,29.78,11,4,11,0.00
2013-5-10,42.4,39.5,37.6,35.7,35.4,34.6,92,85,74,30.20,30.19,9,3,9,0.12
2013-5-11,43.3,42.7,42.0,34.8,33.1,32.2,74,69,66,30.20,30.15,10,2,10,0.08
2013-5-12,67.9,54.6,40.6,37.5,32.8,30.1,69,46,27,30.15,29.95,17,2,17,0.00
2013-5-13,68.3,56.4,50.3,36.6,31.7,28.1,46,39,28,29.97,29.78,14,2,14,0.00
2013-5-14,74.3,59.2,51.2,45.4,37.4,32.2,70,46,23,29.78,29.65,22,4,22,0.02
2013-5-15,69.6,57.1,46.7,46.8,40.0,33.6,90,56,30,29.73,29.64,13,3,13,0.05
2013-5-16,73.2,59.2,45.9,45.4,36.1,26.6,81,47,20,29.67,29.57,23,3,23,0.00
2013-5-17,79.0,62.1,46.3,44.1,26.9,8.1,88,35,8,29.62,29.50,19,3,19,0.00
2013-5-18,67.2,57.0,40.8,36.0,23.0,8.4,79,29,16,29.57,29.45,17,3,17,0.00
2013-5-19,57.9,46.6,37.9,39.0,32.6,23.8,86,61,31,29.72,29.53,20,4,20,0.03
2013-5-20,52.4,40.6,34.6,42.7,35.0,26.5,96,81,50,29.93,29.70,16,4,16,0.18
2013-5-21,57.6,44.6,35.5,35.5,33.4,28.8,94,68,34,29.91,29.77,16,2,16,0.00
2013-5-22,66.1,51.9,35.7,40.5,34.4,30.4,84,55,28,29.84,29.69,19,4,19,0.00
2013-5-23,51.9,45.2,41.3,45.3,41.8,39.3,98,88,67,29.93,29.80,27,7,27,0.00
2013-5-24,76.9,59.6,46.1,52.1,35.8,11.6,99,56,10,29.91,29.69,23,5,23,0.00
2013-5-25,79.0,64.5,45.9,46.2,24.6,-2.7,78,31,5,29.70,29.54,18,3,18,0.00
2013-5-26,79.5,65.3,53.6,42.1,25.8,11.9,65,25,8,29.59,29.46,18,5,18,0.00
2013-5-27,73.8,61.0,50.2,43.4,26.0,12.9,67,30,10,29.54,29.42,24,4,24,0.00
2013-5-28,71.2,58.4,44.3,48.8,38.0,24.6,85,50,24,29.50,29.29,25,5,25,0.00
2013-5-29,58.2,49.8,39.3,46.1,39.7,21.9,96,70,29,29.54,29.28,24,9,24,0.00
2013-5-30,64.7,51.6,38.9,31.5,24.1,11.7,65,38,13,29.67,29.52,32,6,32,0.00
2013-5-31,65.2,52.9,41.8,28.8,18.4,9.5,59,27,13,29.82,29.65,30,6,30,0.00
2013-6-1,59.4,48.2,31.6,36.7,30.3,15.1,88,52,29,30.07,29.82,26,7,26,0.00
2013-6-2,72.5,56.7,38.8,38.0,32.0,23.4,79,44,18,30.07,29.65,20,6,20,0.00
2013-6-3,83.0,69.0,56.1,33.5,24.8,14.9,33,21,9,29.66,29.38,21,3,21,0.00
2013-6-4,71.8,56.2,45.2,51.1,37.0,20.5,97,53,23,29.86,29.51,26,8,26,0.14
2013-6-5,49.4,43.9,39.9,46.5,42.5,39.4,99,95,84,30.05,29.84,26,6,26,0.00
2013-6-6,70.1,55.9,39.4,46.6,39.7,31.1,99,61,25,30.04,29.85,15,2,15,0.00
2013-6-7,70.7,59.1,45.6,44.0,38.3,32.7,72,48,30,29.88,29.60,18,3,18,0.00
2013-6-8,70.8,60.2,48.2,48.0,39.4,32.8,64,47,30,29.74,29.52,27,8,27,0.00
2013-6-9,81.8,64.1,43.0,39.8,33.0,25.5,76,37,14,29.82,29.70,20,5,20,0.00
2013-6-10,87.7,74.2,58.1,34.8,28.3,18.7,32,20,9,29.72,29.47,21,3,21,0.00
2013-6-11,90.3,76.0,65.0,30.4,22.6,3.5,25,15,4,29.50,29.38,33,3,33,0.00
2013-6-16,73.5,58.9,50.4,49.9,41.4,34.5,79,53,24,29.88,29.74,26,5,26,0.15
2013-6-17,71.0,57.9,48.6,53.0,40.8,34.2,91,55,30,29.94,29.82,27,3,27,0.32
2013-6-18,75.5,58.8,46.7,51.8,46.1,39.5,91,65,32,29.90,29.65,25,5,25,0.07
2013-6-19,80.7,63.6,47.7,54.3,41.4,9.2,98,56,11,29.73,29.46,28,6,28,0.00
2013-6-20,85.8,69.5,58.3,41.7,22.6,-1.8,41,19,4,29.56,29.44,27,5,27,0.00
2013-6-21,85.2,68.2,53.3,43.6,27.7,9.8,61,27,6,29.55,29.45,26,3,26,0.00
2013-6-22,82.5,66.0,47.6,48.1,33.2,12.6,82,38,9,29.54,29.42,27,5,27,0.00
2013-6-23,77.8,63.5,46.9,46.4,40.0,31.6,89,47,22,29.67,29.51,28,7,28,0.00
2013-6-24,84.7,65.0,48.4,48.0,31.7,11.0,78,40,7,29.61,29.49,27,3,27,0.00
2013-6-25,84.8,71.8,58.2,26.2,21.6,15.7,25,15,10,29.57,29.49,22,3,22,0.00
2013-6-26,86.3,76.5,68.6,42.0,35.2,30.8,36,23,14,29.70,29.64,21,6,21,0.00
2013-6-27,89.7,75.8,64.0,43.8,38.0,25.1,45,28,11,29.83,29.70,21,6,21,0.00
2013-6-28,88.8,73.2,57.2,53.6,45.2,36.5,85,41,16,29.91,29.71,24,4,25,0.11
2013-6-29,78.2,64.9,52.2,54.8,48.7,40.0,91,58,31,29.91,29.76,21,4,21,0.05
2013-6-30,70.8,59.1,51.3,57.0,50.5,43.3,94,74,51,29.96,29.80,15,2,15,0.27
2013-7-1,64.5,55.0,48.2,55.0,50.6,47.1,97,86,64,30.06,29.95,15,2,16,0.49
2013-7-2,73.5,59.6,46.9,53.0,46.0,35.5,97,65,27,30.06,29.89,21,4,21,0.04
2013-7-3,78.0,63.9,50.7,48.0,41.3,31.3,73,48,20,29.90,29.63,23,3,23,0.00
2013-7-4,81.3,67.7,53.4,44.8,41.2,35.8,71,41,20,29.67,29.57,16,5,20,0.00
2013-7-5,80.2,65.9,56.0,56.6,46.7,38.0,88,53,27,29.59,29.45,17,2,17,0.16
2013-7-6,79.6,64.4,55.7,57.4,49.4,42.5,90,62,30,29.71,29.55,27,3,27,0.11
2013-7-7,80.0,64.8,57.1,56.4,49.9,44.6,84,60,31,29.80,29.68,26,3,26,0.09
2013-7-8,85.2,71.2,57.1,52.9,46.5,39.6,84,45,21,29.80,29.67,16,3,22,0.00
2013-7-9,84.3,71.9,59.0,51.9,41.6,34.7,51,35,18,29.82,29.72,33,3,33,0.00
2013-7-10,80.7,65.8,55.1,57.7,48.7,39.2,93,56,35,29.83,29.70,21,4,21,0.76
2013-7-11,80.0,67.2,51.5,59.2,53.5,50.5,97,65,37,29.83,29.60,25,6,25,0.00
2013-7-12,82.1,70.4,59.0,54.8,50.5,44.5,82,51,31,29.65,29.53,19,5,19,0.00
2013-7-13,84.0,65.5,54.2,57.6,53.4,48.6,93,68,30,29.79,29.65,19,5,21,0.02
2013-7-14,73.1,63.2,54.0,58.2,54.0,48.2,97,74,51,29.87,29.76,25,7,25,1.77
2013-7-15,62.7,56.3,49.9,55.9,52.4,41.9,99,88,62,29.98,29.82,18,4,18,0.04
2013-7-16,67.5,57.3,47.0,53.4,48.3,45.0,94,74,47,30.03,29.92,22,7,22,0.00
2013-7-17,73.3,61.6,51.6,54.0,50.2,44.4,96,70,36,30.02,29.90,25,6,25,0.00
2013-7-18,81.8,65.9,51.7,55.1,50.1,45.2,92,60,33,29.91,29.70,24,7,24,0.00
2013-7-19,74.8,62.9,53.2,56.8,52.6,48.4,91,70,48,29.82,29.75,18,6,18,0.00
2013-7-20,80.7,65.5,53.6,56.6,52.0,43.2,98,66,31,29.80,29.59,19,4,20,0.00
2013-7-21,83.7,68.8,53.5,54.0,45.3,28.7,87,49,16,29.68,29.58,19,3,19,0.00
2013-7-22,84.3,72.7,62.5,48.4,38.7,28.8,45,30,16,29.62,29.56,18,4,18,0.00
2013-7-23,83.7,72.7,62.9,51.2,38.7,22.4,59,32,11,29.72,29.58,18,4,18,0.00
2013-7-24,67.4,59.0,47.9,60.6,55.3,44.8,98,88,58,29.92,29.69,29,4,29,1.10
2013-7-25,71.5,59.0,48.5,56.0,50.5,46.7,98,75,47,30.00,29.83,33,7,33,0.02
2013-7-26,74.5,62.9,52.5,54.7,48.6,44.6,79,61,37,30.01,29.90,17,4,17,0.00
2013-7-27,80.3,63.5,51.5,57.2,49.1,40.7,96,63,26,29.91,29.65,21,4,21,0.03
2013-7-28,65.5,56.3,52.5,60.2,54.7,51.7,99,95,75,29.77,29.61,16,2,16,0.14
2013-7-29,71.3,60.0,52.8,56.3,53.2,43.5,99,80,52,29.95,29.69,16,3,16,0.14
2013-7-30,76.8,62.9,50.1,53.2,48.3,42.5,91,62,35,29.99,29.87,19,2,19,0.05
2013-7-31,76.7,64.7,53.5,55.5,50.2,41.7,92,61,29,29.97,29.84,24,4,24,0.11
2013-8-1,81.3,64.3,53.5,60.5,52.5,40.9,98,71,27,29.90,29.71,15,2,15,0.02
2013-8-6,62.5,59.2,55.3,47.3,46.5,45.0,71,63,56,29.74,29.72,13,3,13,0.00
2013-8-7,62.7,56.6,52.4,55.9,50.6,43.5,97,81,56,29.82,29.70,13,2,13,0.16
2013-8-8,64.9,55.8,48.6,56.9,51.3,42.6,98,86,63,29.94,29.77,20,4,20,0.00
2013-8-9,65.7,54.7,46.5,52.7,47.5,42.1,96,78,55,30.03,29.92,19,2,19,0.20
2013-8-10,74.8,59.6,48.2,59.2,49.1,40.9,98,71,34,30.04,29.90,16,3,16,0.01
2013-8-11,73.3,59.1,50.5,54.6,47.5,40.9,94,67,41,29.94,29.83,21,4,22,0.33
2013-8-12,69.7,59.2,51.5,54.0,48.4,42.3,94,68,47,29.96,29.86,15,3,17,0.00
2013-8-13,69.5,56.9,47.1,53.2,48.8,44.0,96,76,48,30.01,29.89,25,3,25,0.98
2013-8-14,73.4,59.7,47.1,53.1,47.4,39.2,90,66,37,29.99,29.85,16,2,16,0.00
2013-8-15,75.8,64.6,52.7,49.2,43.7,36.9,78,50,28,29.92,29.80,16,3,17,0.00
2013-8-16,79.2,67.5,55.5,50.8,43.0,30.1,84,44,19,29.87,29.79,15,2,15,0.00
2013-8-17,81.8,70.0,60.7,53.4,44.1,26.7,76,41,18,29.84,29.67,20,3,20,0.00
2013-8-18,82.5,66.9,57.2,55.5,48.1,33.6,90,55,20,29.83,29.67,16,2,16,0.09
2013-8-19,80.7,68.6,56.1,53.1,47.1,40.0,84,48,25,29.83,29.73,14,3,14,0.00
2013-8-20,68.0,63.1,60.1,51.6,43.5,38.1,73,50,34,29.75,29.67,6,0,6,0.00
2013-8-21,82.2,67.6,57.7,51.6,44.8,35.8,65,45,25,29.77,29.66,20,4,20,0.00
2013-8-22,77.5,62.0,52.4,59.1,53.1,45.2,97,75,39,29.97,29.75,18,4,18,1.96
2013-8-23,75.1,63.4,51.6,61.4,50.9,42.6,97,67,36,29.96,29.71,21,4,21,0.20
2013-8-24,76.7,65.3,55.3,53.8,47.8,40.0,79,55,32,29.78,29.67,14,3,14,0.00
2013-8-25,77.7,67.3,55.7,55.0,50.0,45.3,81,55,39,29.83,29.76,18,2,18,0.00
2013-8-26,80.0,69.3,59.4,56.4,50.5,46.1,80,53,34,29.80,29.70,17,3,17,0.00
2013-8-27,77.8,67.8,56.2,59.0,52.3,46.0,83,59,41,29.79,29.70,15,4,15,0.00
2013-8-28,81.8,69.5,54.4,55.4,46.3,37.7,81,45,27,29.77,29.69,12,2,12,0.00
2013-8-29,81.0,66.6,57.0,54.0,47.0,38.0,66,50,29,29.80,29.75,13,3,13,0.00
2013-8-31,76.5,59.9,57.0,56.8,53.1,48.1,94,80,37,29.76,29.67,18,2,18,0.27
2013-9-1,68.3,59.2,53.5,60.7,53.9,48.4,96,83,59,29.91,29.75,22,6,22,0.13
2013-9-2,75.5,64.7,53.5,61.5,54.6,48.8,97,72,48,29.90,29.77,13,2,13,0.01
2013-9-3,80.6,69.4,59.4,54.7,50.9,46.3,77,53,31,29.78,29.71,17,3,17,0.00
2013-9-4,79.3,65.3,60.8,57.6,49.8,44.7,66,58,43,29.81,29.75,5,0,5,0.00
2013-9-5,68.6,67.5,65.9,40.3,40.0,39.4,39,37,35,29.80,29.78,14,7,14,0.00
2013-9-6,81.0,70.0,62.7,49.2,40.4,36.3,43,34,25,29.78,29.74,12,1,12,0.00
2013-9-7,70.3,67.2,65.5,40.7,39.4,37.1,40,36,31,29.72,29.70,13,6,13,0.00
2013-9-8,80.3,69.9,58.9,50.0,43.7,39.2,52,40,27,29.71,29.51,19,3,19,0.00
2013-9-9,72.6,56.3,52.5,53.4,51.7,42.3,97,87,34,29.68,29.54,23,12,23,0.01
2013-9-10,66.3,56.5,51.3,55.7,52.7,50.3,98,88,60,29.92,29.67,15,5,15,0.23
2013-9-11,61.8,55.9,52.8,56.4,54.0,52.2,99,94,78,29.96,29.87,12,4,15,0.24
2013-9-12,61.9,55.4,52.0,59.0,54.5,51.5,99,97,87,30.00,29.89,15,5,15,1.60
2013-9-13,62.0,55.1,52.1,57.0,53.6,51.2,99,95,80,29.90,29.69,19,7,24,0.98
2013-9-14,70.3,56.8,48.4,56.8,50.6,46.1,99,81,47,29.74,29.61,14,2,14,0.04
2013-9-15,57.4,51.3,48.8,53.8,50.2,46.9,99,96,86,30.06,29.74,17,6,17,0.14
2013-9-16,57.7,51.3,47.7,55.9,50.6,47.4,99,98,89,30.05,29.91,15,3,15,0.26
2013-9-17,73.5,60.6,48.2,52.3,47.2,38.1,99,65,30,29.93,29.60,16,2,16,0.00
2013-9-18,74.7,62.5,53.1,50.6,44.6,39.8,78,53,32,29.62,29.50,23,2,25,0.03
2013-9-19,57.2,51.4,44.5,47.1,42.5,31.7,86,72,57,29.99,29.58,20,5,20,0.00
2013-9-20,60.7,51.3,45.3,50.6,46.2,41.4,98,83,65,30.00,29.87,15,4,15,0.00
2013-9-21,72.3,56.3,46.0,46.4,42.3,35.2,97,64,29,29.90,29.59,12,1,12,0.01
2013-9-22,50.3,48.4,45.9,45.7,45.0,43.9,95,88,83,29.29,29.26,21,4,21,0.23
2013-9-23,58.9,48.2,38.7,44.5,36.0,26.2,97,67,36,29.95,29.20,25,7,25,0.49
2013-9-24,62.2,49.9,40.6,36.7,29.8,19.9,60,47,31,29.99,29.73,22,4,22,0.00
2013-9-25,72.8,59.4,46.8,36.8,29.6,19.8,65,34,18,29.73,29.30,23,3,23,0.00
2013-9-26,68.3,58.0,40.7,45.8,33.3,20.2,88,43,24,29.44,29.30,22,4,22,0.00
2013-9-27,62.6,48.8,33.0,46.5,36.3,28.3,98,67,35,29.79,29.40,24,6,24,0.00
2013-9-28,32.9,32.1,31.4,32.0,28.7,25.7,97,87,78,29.87,29.79,9,1,9,0.00
2013-9-30,61.4,59.9,58.4,41.3,38.6,34.9,50,45,38,29.59,29.55,7,1,7,0.00
2013-10-2,68.1,59.5,43.3,41.3,36.3,30.2,88,45,27,29.73,29.60,14,5,14,0.00
2013-10-3,65.5,52.8,39.3,43.9,34.3,22.9,97,57,20,29.61,29.43,22,5,22,0.00
2013-10-4,43.9,37.5,28.6,43.0,36.8,27.8,98,97,96,29.65,29.43,23,9,23,0.01
2013-10-5,49.7,49.7,49.7,12.4,12.4,12.4,22,22,22,30.24,30.24,16,16,23,0.00
2013-10-7,64.5,54.3,48.7,26.8,23.2,20.6,35,30,22,29.83,29.76,12,2,16,0.00
2013-10-8,68.0,58.6,46.0,33.5,22.6,16.0,49,25,15,29.76,29.46,15,2,15,0.00
2013-10-9,64.9,52.7,39.1,38.2,30.8,24.7,91,46,24,29.70,29.54,20,5,20,0.00
2013-10-10,56.2,44.0,34.7,41.0,35.8,22.6,98,74,47,29.69,29.39,24,4,24,0.05
2013-10-11,57.7,42.7,35.6,38.0,31.9,21.7,96,70,31,29.95,29.45,15,2,15,0.05
2013-10-12,46.9,39.9,35.4,38.0,34.6,30.5,97,82,66,30.11,29.94,24,7,24,0.00
2013-10-13,56.0,42.3,30.2,46.2,36.8,28.9,96,83,53,30.11,29.81,29,6,29,0.09
2013-10-14,52.2,41.1,28.4,41.0,34.2,23.5,98,79,35,30.01,29.66,25,7,25,0.00
2013-10-15,29.0,28.5,27.2,27.2,26.3,24.6,94,91,89,30.05,30.01,18,11,18,0.00
2013-10-17,38.2,31.4,30.1,27.7,27.0,26.2,86,84,65,30.00,29.96,13,2,13,0.00
2013-10-18,37.2,29.9,25.2,27.2,25.3,22.9,93,83,62,30.23,29.95,20,3,20,0.05
2013-10-21,40.8,37.7,35.6,26.6,25.1,21.5,66,60,47,30.21,30.16,3,0,3,0.06
2013-10-22,57.3,44.7,36.2,30.1,25.3,21.5,63,48,29,30.19,30.05,17,2,17,0.00
2013-10-23,60.9,48.9,38.8,31.6,25.9,21.2,65,42,23,30.05,29.95,12,3,12,0.00
2013-10-24,55.9,41.8,33.1,35.3,30.8,27.1,88,66,43,30.15,30.01,12,2,12,0.00
2013-10-25,61.4,47.3,29.0,32.8,27.6,23.4,96,53,24,30.14,30.00,15,4,15,0.00
2013-10-27,45.2,44.3,43.4,21.6,20.3,17.7,41,38,34,29.72,29.70,6,0,6,0.00
2013-10-28,46.7,35.6,27.9,32.3,26.8,17.4,96,74,31,29.92,29.69,20,5,20,0.00
2013-10-29,53.6,34.4,23.4,33.7,27.4,21.7,97,80,35,30.00,29.83,20,2,20,0.02
2013-10-30,48.2,35.5,25.8,32.0,25.4,17.4,97,72,30,29.84,29.71,18,3,18,0.01
2013-10-31,51.0,35.9,26.3,25.1,16.6,12.4,84,48,22,29.90,29.76,21,3,21,0.00
2013-11-1,36.7,33.7,28.5,27.5,20.8,16.1,83,59,47,30.22,29.89,15,3,15,0.00
2013-11-2,52.3,39.7,28.0,24.4,18.9,5.7,85,47,19,30.23,29.77,18,2,18,0.00
2013-11-3,59.2,48.3,28.0,26.1,16.2,7.5,86,30,17,29.78,29.39,27,4,27,0.00
2013-11-4,32.1,26.1,20.5,27.7,22.7,17.8,96,87,69,30.02,29.57,20,5,23,0.00
2013-11-5,32.6,23.7,14.4,25.7,14.4,3.3,95,69,44,30.27,29.91,24,7,24,0.00
2013-11-6,45.9,31.1,13.1,13.6,9.6,-0.7,82,42,25,30.44,30.26,19,3,19,0.00
2013-11-7,49.6,35.7,24.4,19.0,15.1,11.5,62,44,28,30.43,30.06,16,2,16,0.00
2013-11-8,62.8,49.8,37.5,18.7,13.4,8.9,41,24,12,30.06,29.71,25,2,25,0.00
2013-11-9,51.6,41.7,33.9,26.1,22.2,15.9,72,46,34,30.15,29.85,17,2,17,0.00
2013-11-10,59.7,45.1,31.5,27.6,20.6,10.7,80,43,15,30.19,30.08,14,1,14,0.00
2013-11-11,58.7,41.4,25.0,28.6,18.8,11.8,95,49,16,30.44,30.08,17,4,17,0.00
2013-11-12,48.7,34.6,23.3,31.0,25.1,17.2,96,71,40,30.60,30.43,13,2,13,0.00
2013-11-13,60.2,46.9,36.9,17.3,6.1,-4.6,44,21,8,30.44,29.87,12,2,12,0.00
2013-11-14,51.1,39.8,30.9,30.3,23.6,6.6,84,56,21,29.88,29.71,19,5,19,0.00
2013-11-15,53.3,38.4,27.0,26.9,19.4,12.5,90,51,22,29.71,29.36,21,2,21,0.00
2013-11-16,49.9,39.3,29.3,27.9,18.6,12.5,90,46,25,29.43,29.24,24,3,24,0.00
2013-11-17,46.9,33.1,23.4,21.6,17.2,13.9,76,54,28,30.14,29.43,19,4,19,0.00
2013-11-18,54.3,39.1,21.7,13.8,9.2,4.0,61,32,14,30.18,30.05,13,2,13,0.00
2013-11-19,45.4,39.1,36.0,18.7,16.9,12.1,49,40,28,29.69,29.66,7,0,7,0.00
2013-11-20,49.6,40.8,32.2,30.3,21.3,17.6,90,47,31,29.81,29.65,13,2,13,0.00
2013-11-21,32.8,11.4,4.3,30.5,8.9,1.5,93,90,87,30.77,29.80,20,9,20,0.00
2013-11-22,27.9,19.8,8.9,24.2,16.7,6.3,93,88,74,30.85,30.71,15,3,15,0.01
2013-11-23,20.7,16.9,15.1,14.4,10.8,1.2,93,77,50,30.74,30.50,21,4,21,0.00
2013-11-24,33.9,22.4,15.2,27.9,19.2,13.1,97,88,69,30.50,30.10,37,7,37,0.00
2013-11-25,29.4,25.4,20.6,24.6,18.7,14.2,92,76,63,30.41,30.12,41,14,41,0.00
2013-11-26,35.7,28.7,24.1,20.4,18.0,15.8,79,65,48,30.51,30.34,17,4,17,0.00
2013-11-27,43.8,35.9,23.8,16.4,13.7,8.1,72,42,26,30.34,30.07,4,0,4,0.00
2013-11-28,39.6,31.2,22.0,24.4,20.5,8.8,94,66,34,30.18,30.06,16,2,16,0.00
2013-11-29,52.7,39.2,22.0,22.7,14.8,11.7,95,39,22,30.20,30.11,15,2,15,0.00
2013-11-30,51.0,38.8,29.7,15.5,9.4,5.5,49,31,16,30.13,30.03,15,1,15,0.00
2013-12-1,49.9,39.1,30.2,21.5,12.7,6.9,53,34,23,30.09,29.82,14,2,14,0.00
2013-12-2,50.1,39.8,34.1,22.4,19.3,15.8,57,44,30,29.84,29.47,19,3,19,0.00
2013-12-3,49.9,33.2,6.7,24.9,16.4,3.9,93,55,31,29.52,29.28,22,5,22,0.00
2013-12-4,6.7,-0.6,-8.0,4.2,-3.8,-11.8,89,86,83,30.40,29.51,15,5,15,0.00
2013-12-5,0.8,-4.8,-8.3,-2.4,-8.3,-12.2,86,84,83,30.54,30.35,12,1,12,0.00
2013-12-6,1.0,-5.3,-10.9,-2.5,-8.9,-14.9,86,84,82,30.70,30.52,13,1,13,0.00
2013-12-7,7.5,-1.0,-5.7,5.2,-4.3,-9.3,91,86,84,30.66,30.13,16,2,16,0.00
2013-12-8,16.4,9.9,0.9,13.4,7.0,-2.6,93,88,71,30.23,29.98,19,3,19,0.00
2013-12-9,17.1,10.4,-1.8,9.4,1.6,-5.0,88,68,51,30.50,30.21,11,1,11,0.00
2013-12-11,30.9,24.3,8.8,15.8,7.7,-5.0,89,53,22,30.56,30.42,13,1,13,0.00
2013-12-12,55.2,39.2,29.4,8.8,1.2,-7.1,29,20,10,30.53,29.85,15,1,15,0.00
2013-12-13,41.2,30.7,20.2,16.8,8.7,-2.2,74,43,21,30.12,29.72,20,7,20,0.00
2013-12-14,35.0,24.5,13.7,14.5,12.0,8.9,90,61,36,30.39,30.13,11,3,13,0.00
2013-12-15,49.4,37.3,27.1,18.7,12.9,5.1,59,38,24,30.32,30.11,15,2,15,0.00
2013-12-16,54.4,41.8,33.0,16.4,11.7,5.3,42,30,17,30.17,30.03,9,2,9,0.00
2013-12-17,52.3,40.3,32.6,17.0,12.7,5.2,50,33,22,30.26,30.06,10,1,10,0.00
2013-12-18,57.4,47.3,41.2,14.0,9.5,5.4,29,22,13,30.06,29.57,13,1,13,0.00
2013-12-19,50.8,43.5,27.8,22.0,17.1,9.5,74,36,23,29.57,29.35,22,2,22,0.00
2013-12-20,21.7,19.2,17.3,19.8,17.6,14.8,95,93,89,29.82,29.74,12,1,12,0.00
2013-12-21,20.7,17.5,15.7,18.0,15.4,13.5,93,91,89,29.95,29.74,16,8,16,0.00
2013-12-23,33.4,31.5,29.2,18.1,17.2,0.0,58,55,52,30.38,30.34,144,2,144,2.56
2013-12-25,29.5,23.3,20.1,7.4,6.6,5.7,55,49,37,30.47,30.40,9,1,9,0.00
2013-12-26,44.1,34.3,26.1,11.5,7.1,-0.2,46,32,22,30.40,30.28,15,3,15,0.00
2013-12-27,45.9,32.3,27.1,14.6,10.6,7.3,45,40,28,30.30,30.26,5,0,5,0.00
2013-12-28,33.8,23.0,15.4,20.9,18.0,12.9,92,83,47,30.02,29.81,24,13,24,0.00
2013-12-29,23.9,15.1,9.5,17.9,12.3,6.9,93,89,68,30.25,30.01,26,6,26,0.00
2013-12-30,36.2,29.0,22.4,15.8,13.9,11.7,67,54,39,30.37,30.22,13,2,13,0.00
2013-12-31,31.2,26.7,24.6,12.3,10.6,8.9,59,50,42,30.22,30.14,5,1,5,0.00
2014-1-1,30.7,20.5,13.0,21.9,17.3,9.7,93,87,68,30.34,30.08,27,6,27,0.00
2014-1-2,34.6,31.0,28.9,16.3,14.1,5.4,55,50,29,30.41,30.13,5,0,5,0.00